createdAt,value
2019-03-19T00:01:36.108Z,52.15
2019-03-19T00:05:41.789Z,52.72
2019-03-19T00:09:47.449Z,52.89
2019-03-19T00:13:53.130Z,53.38
2019-03-19T00:17:58.839Z,54.55
2019-03-19T00:22:04.599Z,56.90
2019-03-19T00:26:10.309Z,52.50
2019-03-19T00:30:17.896Z,52.29
2019-03-19T00:34:24.551Z,51.56
2019-03-19T00:38:30.307Z,52.07
2019-03-19T00:42:37.059Z,52.23
2019-03-19T00:46:43.844Z,53.47
2019-03-19T00:50:49.530Z,55.53
2019-03-19T00:54:55.203Z,52.87
2019-03-19T00:59:00.889Z,53.09
2019-03-19T01:03:06.644Z,51.88
2019-03-19T01:07:12.332Z,50.62
2019-03-19T01:11:18.151Z,51.59
2019-03-19T01:15:23.834Z,53.86
2019-03-19T01:19:29.524Z,55.16
2019-03-19T01:23:35.204Z,50.29
2019-03-19T01:27:40.948Z,51.35
2019-03-19T01:31:46.639Z,51.15
2019-03-19T01:35:52.357Z,53.58
2019-03-19T01:40:01.338Z,53.58
2019-03-19T01:44:08.033Z,50.06
2019-03-19T01:48:13.700Z,50.25
2019-03-19T01:52:19.443Z,50.21
2019-03-19T01:56:25.124Z,50.41
2019-03-19T02:00:30.885Z,50.55
2019-03-19T02:04:37.528Z,50.90
2019-03-19T02:08:43.190Z,51.40
2019-03-19T02:12:48.866Z,53.93
2019-03-19T02:16:54.548Z,53.77
2019-03-19T02:21:00.288Z,55.05
2019-03-19T02:25:10.401Z,54.23
2019-03-19T02:29:16.089Z,54.63
2019-03-19T02:33:21.769Z,53.02
2019-03-19T02:37:27.663Z,57.00
2019-03-19T02:41:33.460Z,55.79
2019-03-19T02:45:39.111Z,55.23
2019-03-19T02:49:44.787Z,54.96
2019-03-19T02:53:50.522Z,52.08
2019-03-19T02:57:57.185Z,52.49
2019-03-19T03:02:02.897Z,57.11
2019-03-19T03:06:08.569Z,54.38
2019-03-19T03:10:15.080Z,52.76
2019-03-19T03:14:20.767Z,55.78
2019-03-19T03:18:26.449Z,53.25
2019-03-19T03:22:33.196Z,55.81
2019-03-19T03:26:47.415Z,55.76
2019-03-19T03:30:46.298Z,51.91
2019-03-19T03:34:52.077Z,53.23
2019-03-19T03:38:57.723Z,52.39
2019-03-19T03:43:03.482Z,55.00
2019-03-19T03:47:09.178Z,53.48
2019-03-19T03:51:14.858Z,53.59
2019-03-19T03:55:21.268Z,53.73
2019-03-19T03:59:26.946Z,53.93
2019-03-19T04:03:32.711Z,57.69
2019-03-19T04:07:38.403Z,53.97
2019-03-19T04:11:44.079Z,53.02
2019-03-19T04:15:49.764Z,51.25
2019-03-19T04:19:55.449Z,53.92
2019-03-19T04:24:01.359Z,54.87
2019-03-19T04:28:07.072Z,52.38
2019-03-19T04:32:12.747Z,53.62
2019-03-19T04:36:18.474Z,52.41
2019-03-19T04:40:24.188Z,52.26
2019-03-19T04:44:29.845Z,52.37
2019-03-19T04:48:35.539Z,54.52
2019-03-19T04:52:41.223Z,53.52
2019-03-19T04:56:46.905Z,52.30
2019-03-19T05:00:52.571Z,52.00
2019-03-19T05:04:58.370Z,53.25
2019-03-19T05:09:05.629Z,53.44
2019-03-19T05:13:11.321Z,55.00
2019-03-19T05:17:17.008Z,54.55
2019-03-19T05:21:22.713Z,54.75
2019-03-19T05:25:28.386Z,54.41
2019-03-19T05:29:35.700Z,53.35
2019-03-19T05:33:41.409Z,55.70
2019-03-19T05:37:47.161Z,53.96
2019-03-19T05:41:52.820Z,53.85
2019-03-19T05:45:58.497Z,50.69
2019-03-19T05:50:05.603Z,50.40
2019-03-19T05:54:14.610Z,52.13
2019-03-19T05:58:18.869Z,56.89
2019-03-19T06:02:24.543Z,53.67
2019-03-19T06:06:30.227Z,51.95
2019-03-19T06:10:35.910Z,53.47
2019-03-19T06:14:41.599Z,52.47
2019-03-19T06:18:47.275Z,50.94
2019-03-19T06:22:52.955Z,49.98
2019-03-19T06:26:58.655Z,50.13
2019-03-19T06:31:04.472Z,52.65
2019-03-19T06:35:12.102Z,53.68
2019-03-19T06:39:17.778Z,48.40
2019-03-19T06:43:23.470Z,50.39
2019-03-19T06:47:29.173Z,48.98
2019-03-19T06:51:34.849Z,48.68
2019-03-19T06:55:40.540Z,48.62
2019-03-19T06:59:46.208Z,49.03
2019-03-19T07:03:51.962Z,49.10
2019-03-19T07:07:57.644Z,48.89
2019-03-19T07:12:03.465Z,48.65
2019-03-19T07:16:09.169Z,48.01
2019-03-19T07:20:25.772Z,49.43
2019-03-19T07:24:31.428Z,48.18
2019-03-19T07:28:37.116Z,49.11
2019-03-19T07:32:42.816Z,50.38
2019-03-19T07:36:48.492Z,48.73
2019-03-19T07:40:54.160Z,48.68
2019-03-19T07:44:59.846Z,47.32
2019-03-19T07:49:05.610Z,44.19
2019-03-19T07:53:11.345Z,41.24
2019-03-19T07:57:17.035Z,40.26
2019-03-19T08:01:24.603Z,42.49
2019-03-19T08:05:33.249Z,38.58
2019-03-19T08:09:37.639Z,37.38
2019-03-19T08:13:43.356Z,38.25
2019-03-19T08:17:49.102Z,40.95
2019-03-19T08:21:54.734Z,38.90
2019-03-19T08:26:00.450Z,36.70
2019-03-19T08:30:19.900Z,35.37
2019-03-19T08:34:25.579Z,34.11
2019-03-19T08:38:31.280Z,34.60
2019-03-19T08:42:36.960Z,33.29
2019-03-19T08:46:42.645Z,35.75
2019-03-19T08:50:49.419Z,39.08
2019-03-19T08:54:55.100Z,38.04
2019-03-19T08:59:05.746Z,36.28
2019-03-19T09:03:08.170Z,33.96
2019-03-19T09:07:13.866Z,35.10
2019-03-19T09:11:19.566Z,35.68
2019-03-19T09:15:28.078Z,32.18
2019-03-19T09:19:34.133Z,30.65
2019-03-19T09:23:39.827Z,33.22
2019-03-19T09:27:45.597Z,36.82
2019-03-19T09:31:51.315Z,39.16
2019-03-19T09:35:57.105Z,40.02
2019-03-19T09:40:02.809Z,42.88
2019-03-19T09:44:08.460Z,41.53
2019-03-19T09:48:14.149Z,43.79
2019-03-19T09:52:19.852Z,44.73
2019-03-19T09:56:25.548Z,39.18
2019-03-19T10:00:31.244Z,38.84
2019-03-19T10:04:38.749Z,37.76
2019-03-19T10:08:44.510Z,36.66
2019-03-19T10:12:50.349Z,34.40
2019-03-19T10:16:56.054Z,34.05
2019-03-19T10:21:01.731Z,31.42
2019-03-19T10:25:12.329Z,29.54
2019-03-19T10:29:18.025Z,28.77
2019-03-19T10:33:23.723Z,31.11
2019-03-19T10:37:29.479Z,28.73
2019-03-19T10:41:35.158Z,31.10
2019-03-19T10:45:40.855Z,33.85
2019-03-19T10:49:46.551Z,32.50
2019-03-19T10:53:52.257Z,36.40
2019-03-19T10:57:57.996Z,33.97
2019-03-19T11:06:54.699Z,37.87
2019-03-19T11:11:00.386Z,34.92
2019-03-19T11:15:13.229Z,27.30
2019-03-19T11:19:18.934Z,24.33
2019-03-19T11:23:24.637Z,21.45
2019-03-19T11:27:30.662Z,21.74
2019-03-19T11:31:36.360Z,21.59
2019-03-19T11:35:42.059Z,21.39
2019-03-19T11:39:47.727Z,18.71
2019-03-19T11:47:43.523Z,26.72
2019-03-19T11:51:47.754Z,27.65
2019-03-19T11:55:53.445Z,30.84
2019-03-19T11:59:59.114Z,29.88
2019-03-19T12:04:04.951Z,30.92
2019-03-19T12:08:10.706Z,32.84
2019-03-19T12:12:16.406Z,30.39
2019-03-19T12:16:22.097Z,27.90
2019-03-19T12:20:27.782Z,23.53
2019-03-19T12:24:33.501Z,24.00
2019-03-19T12:28:40.038Z,28.77
2019-03-19T12:32:47.571Z,27.09
2019-03-19T12:36:53.287Z,26.01
2019-03-19T12:40:58.971Z,26.33
2019-03-19T12:45:08.075Z,25.89
2019-03-19T12:49:13.754Z,24.99
2019-03-19T12:53:19.448Z,21.38
2019-03-19T12:57:26.663Z,22.31
2019-03-19T13:01:32.385Z,20.79
2019-03-19T13:05:38.126Z,22.17
2019-03-19T13:09:43.822Z,22.88
2019-03-19T13:13:49.585Z,25.86
2019-03-19T13:17:55.386Z,22.47
2019-03-19T13:22:01.083Z,23.80
2019-03-19T13:26:06.902Z,28.27
2019-03-19T13:30:16.099Z,28.05
2019-03-19T13:34:21.799Z,27.53
2019-03-19T13:38:27.457Z,22.90
2019-03-19T13:42:33.191Z,21.01
2019-03-19T13:46:38.848Z,21.53
2019-03-19T13:50:44.532Z,24.77
2019-03-19T13:54:50.223Z,26.92
2019-03-19T13:58:55.925Z,24.10
2019-03-19T14:03:01.595Z,21.16
2019-03-19T14:07:07.305Z,19.69
2019-03-19T14:11:13.022Z,20.49
2019-03-19T14:15:24.286Z,20.47
2019-03-19T14:19:29.958Z,20.37
2019-03-19T14:23:35.650Z,21.68
2019-03-19T14:27:41.349Z,20.96
2019-03-19T14:31:47.040Z,21.93
2019-03-19T14:35:52.746Z,21.83
2019-03-19T14:39:58.409Z,20.10
2019-03-19T14:44:04.209Z,21.51
2019-03-19T14:48:10.012Z,22.89
2019-03-19T14:52:15.729Z,26.59
2019-03-19T14:56:21.389Z,27.49
2019-03-19T15:00:27.121Z,28.47
2019-03-19T15:04:32.806Z,28.78
2019-03-19T15:08:38.507Z,30.15
2019-03-19T15:12:44.274Z,30.42
2019-03-19T15:16:49.947Z,30.94
2019-03-19T15:20:55.640Z,31.69
2019-03-19T15:25:01.354Z,30.21
2019-03-19T15:29:07.022Z,30.85
2019-03-19T15:33:12.714Z,28.20
2019-03-19T15:37:18.494Z,29.24
2019-03-19T15:41:24.292Z,28.24
2019-03-19T15:45:31.791Z,27.85
2019-03-19T15:49:38.542Z,34.04
2019-03-19T15:53:45.316Z,33.49
2019-03-19T15:57:51.018Z,29.34
2019-03-19T16:01:56.811Z,30.26
2019-03-19T16:06:02.555Z,31.25
2019-03-19T16:10:14.016Z,32.92
2019-03-19T16:14:19.710Z,29.56
2019-03-19T16:18:25.419Z,30.71
2019-03-19T16:22:31.130Z,34.99
2019-03-19T16:26:36.837Z,30.78
2019-03-19T16:30:42.533Z,29.22
2019-03-19T16:34:48.205Z,30.46
2019-03-19T16:38:53.973Z,35.71
2019-03-19T16:42:59.672Z,32.55
2019-03-19T16:47:05.584Z,31.67
2019-03-19T16:51:15.529Z,31.94
2019-03-19T16:55:22.525Z,34.02
2019-03-19T16:59:28.230Z,32.82
2019-03-19T17:03:33.930Z,32.20
2019-03-19T17:07:39.625Z,39.77
2019-03-19T17:11:45.384Z,33.51
2019-03-19T17:15:52.178Z,38.75
2019-03-19T17:19:57.873Z,36.45
2019-03-19T17:24:03.571Z,38.46
2019-03-19T17:28:09.340Z,35.17
2019-03-19T17:32:15.121Z,32.74
2019-03-19T17:36:20.799Z,33.12
2019-03-19T17:40:26.510Z,34.85
2019-03-19T17:44:32.198Z,34.77
2019-03-19T17:48:37.911Z,38.46
2019-03-19T17:52:43.683Z,35.62
2019-03-19T17:56:49.369Z,34.71
2019-03-19T18:00:55.853Z,38.25
2019-03-19T18:05:01.535Z,35.87
2019-03-19T18:09:08.484Z,38.20
2019-03-19T18:13:19.905Z,38.51
2019-03-19T18:17:25.621Z,36.98
2019-03-19T18:21:31.318Z,41.20
2019-03-19T18:25:37.371Z,40.82
2019-03-19T18:29:43.056Z,42.04
2019-03-19T18:33:49.276Z,41.47
2019-03-19T18:37:55.056Z,39.95
2019-03-19T18:42:00.840Z,40.75
2019-03-19T18:46:06.670Z,39.52
2019-03-19T18:50:19.686Z,41.06
2019-03-19T18:54:25.354Z,42.05
2019-03-19T18:58:31.073Z,40.31
2019-03-19T19:02:36.824Z,40.74
2019-03-19T19:06:42.507Z,37.81
2019-03-19T19:10:48.232Z,37.74
2019-03-19T19:14:53.982Z,43.41
2019-03-19T19:18:59.655Z,44.46
2019-03-19T19:23:05.452Z,43.62
2019-03-19T19:27:14.744Z,39.20
2019-03-19T19:31:20.123Z,41.99
2019-03-19T19:35:25.971Z,39.95
2019-03-19T19:39:31.676Z,39.63
2019-03-19T19:43:37.407Z,43.19
2019-03-19T19:47:43.166Z,40.79
2019-03-19T19:51:48.885Z,41.23
2019-03-19T19:55:54.587Z,42.25
2019-03-19T20:00:01.912Z,40.71
2019-03-19T20:04:08.374Z,44.71
2019-03-19T20:08:14.032Z,43.29
2019-03-19T20:12:19.727Z,44.79
2019-03-19T20:16:25.491Z,45.17
2019-03-19T20:36:18.575Z,44.37
2019-03-19T20:41:18.559Z,44.10
2019-03-19T20:50:21.448Z,43.23
2019-03-19T20:59:20.172Z,43.13
2019-03-19T21:04:17.108Z,45.75
2019-03-19T21:08:22.803Z,45.50
2019-03-19T21:12:31.364Z,44.99
2019-03-19T21:17:18.106Z,43.67
2019-03-19T21:21:23.828Z,39.75
2019-03-19T21:26:17.907Z,43.07
2019-03-19T21:30:24.794Z,46.03
2019-03-19T21:35:22.128Z,46.53
2019-03-19T21:39:27.844Z,46.71
2019-03-19T21:44:18.771Z,45.66
2019-03-19T21:48:24.608Z,45.05
2019-03-19T21:53:18.445Z,45.68
2019-03-19T21:57:24.230Z,47.18
2019-03-19T22:07:19.333Z,46.79
2019-03-19T22:11:25.091Z,45.36
2019-03-19T22:15:30.867Z,45.74
2019-03-19T22:20:18.748Z,46.14
2019-03-19T22:24:24.437Z,47.93
2019-03-19T22:29:18.592Z,44.57
2019-03-19T22:33:24.355Z,47.56
2019-03-19T22:38:15.632Z,48.82
2019-03-19T22:42:22.966Z,45.79
2019-03-19T22:46:28.665Z,47.14
2019-03-19T22:50:34.384Z,49.39
2019-03-19T22:54:40.057Z,46.11
2019-03-19T22:58:45.754Z,48.55
2019-03-19T23:02:51.943Z,46.23
2019-03-19T23:06:57.801Z,46.11
2019-03-19T23:11:03.580Z,50.12
2019-03-19T23:15:13.468Z,46.13
2019-03-19T23:19:19.153Z,47.87
2019-03-19T23:23:24.961Z,48.42
2019-03-19T23:27:30.652Z,46.55
2019-03-19T23:31:36.325Z,50.71
2019-03-19T23:35:41.985Z,47.69
2019-03-19T23:39:47.658Z,48.73
2019-03-19T23:43:53.442Z,45.49
2019-03-19T23:47:59.138Z,46.85
2019-03-19T23:52:04.816Z,50.33
2019-03-19T23:56:10.538Z,44.93
